createdAt,value
2022-08-03T00:01:28.510Z,31.88
2022-08-03T00:03:55.248Z,31.92
2022-08-03T00:06:21.780Z,31.76
2022-08-03T00:08:48.358Z,31.83
2022-08-03T00:11:14.877Z,31.71
2022-08-03T00:13:41.439Z,31.62
2022-08-03T00:16:08.486Z,31.56
2022-08-03T00:18:35.037Z,31.55
2022-08-03T00:21:03.894Z,31.38
2022-08-03T00:23:51.468Z,31.38
2022-08-03T00:26:17.051Z,31.24
2022-08-03T00:28:43.651Z,31.19
2022-08-03T00:31:13.457Z,31.05
2022-08-03T00:33:58.348Z,31.03
2022-08-03T00:36:27.554Z,31.00
2022-08-03T00:38:54.401Z,30.90
2022-08-03T00:41:21.151Z,30.83
2022-08-03T00:43:47.779Z,30.81
2022-08-03T00:46:17.729Z,30.67
2022-08-03T00:48:49.507Z,30.68
2022-08-03T00:51:16.359Z,30.54
2022-08-03T00:53:43.528Z,30.56
2022-08-03T00:56:14.072Z,30.51
2022-08-03T00:58:40.756Z,30.50
2022-08-03T01:01:07.467Z,30.41
2022-08-03T01:03:34.427Z,30.28
2022-08-03T01:06:12.828Z,30.21
2022-08-03T01:08:56.835Z,30.23
2022-08-03T01:11:59.946Z,30.28
2022-08-03T01:14:35.997Z,30.26
2022-08-03T01:17:13.060Z,30.19
2022-08-03T01:19:45.660Z,30.20
2022-08-03T01:22:26.397Z,30.23
2022-08-03T01:25:24.080Z,30.11
2022-08-03T01:28:19.879Z,29.97
2022-08-03T01:30:47.254Z,29.88
2022-08-03T01:33:24.182Z,29.94
2022-08-03T01:35:58.919Z,29.94
2022-08-03T01:38:30.863Z,29.87
2022-08-03T01:40:58.439Z,29.89
2022-08-03T01:44:26.898Z,29.92
2022-08-03T01:46:18.916Z,29.91
2022-08-03T01:48:47.387Z,29.90
2022-08-03T01:51:18.061Z,29.89
2022-08-03T01:53:45.398Z,29.88
2022-08-03T01:56:13.920Z,29.80
2022-08-03T01:58:42.071Z,29.79
2022-08-03T02:01:10.020Z,29.77
2022-08-03T02:04:00.431Z,29.75
2022-08-03T02:07:00.215Z,29.65
2022-08-03T02:09:17.563Z,29.59
2022-08-03T02:11:46.626Z,29.65
2022-08-03T02:14:14.595Z,29.59
2022-08-03T02:16:43.227Z,29.57
2022-08-03T02:19:11.503Z,29.53
2022-08-03T02:21:56.849Z,29.42
2022-08-03T02:24:25.569Z,29.64
2022-08-03T02:26:55.742Z,29.82
2022-08-03T02:29:38.799Z,29.77
2022-08-03T02:32:12.640Z,29.81
2022-08-03T02:34:41.986Z,29.87
2022-08-03T02:37:10.319Z,30.54
2022-08-03T02:39:39.914Z,30.51
2022-08-03T02:42:09.546Z,30.60
2022-08-03T02:44:40.298Z,30.80
2022-08-03T02:47:10.793Z,30.73
2022-08-03T02:49:51.595Z,30.71
2022-08-03T02:52:25.334Z,30.88
2022-08-03T02:54:54.959Z,30.94
2022-08-03T02:57:23.553Z,31.03
2022-08-03T02:59:52.125Z,30.96
2022-08-03T03:02:20.111Z,30.94
2022-08-03T03:05:52.602Z,31.05
2022-08-03T03:07:51.440Z,31.04
2022-08-03T03:10:22.594Z,31.01
2022-08-03T03:12:52.663Z,31.02
2022-08-03T03:15:19.410Z,31.10
2022-08-03T03:17:48.199Z,30.91
2022-08-03T03:20:15.625Z,30.87
2022-08-03T03:22:59.587Z,30.82
2022-08-03T03:25:26.677Z,30.82
2022-08-03T03:27:54.336Z,30.86
2022-08-03T03:30:21.447Z,30.86
2022-08-03T03:32:48.432Z,30.83
2022-08-03T03:35:16.764Z,30.77
2022-08-03T03:37:43.333Z,30.78
2022-08-03T03:40:10.599Z,30.76
2022-08-03T03:42:38.426Z,30.71
2022-08-03T03:45:08.849Z,30.67
2022-08-03T03:47:35.803Z,30.66
2022-08-03T03:50:04.573Z,30.62
2022-08-03T03:52:32.252Z,30.56
2022-08-03T03:55:01.281Z,30.37
2022-08-03T03:57:29.461Z,30.46
2022-08-03T03:59:56.569Z,30.59
2022-08-03T04:02:23.122Z,30.54
2022-08-03T04:05:08.432Z,30.51
2022-08-03T04:08:10.805Z,30.46
2022-08-03T04:11:00.384Z,30.40
2022-08-03T04:13:35.220Z,30.41
2022-08-03T04:16:03.091Z,30.36
2022-08-03T04:18:32.489Z,30.40
2022-08-03T04:21:03.918Z,30.41
2022-08-03T04:23:34.795Z,30.43
2022-08-03T04:26:03.549Z,30.46
2022-08-03T04:28:32.393Z,30.31
2022-08-03T04:31:01.332Z,30.24
2022-08-03T04:33:31.413Z,30.04
2022-08-03T04:36:02.895Z,30.12
2022-08-03T04:38:33.190Z,30.01
2022-08-03T04:41:01.457Z,30.14
2022-08-03T04:43:29.005Z,29.82
2022-08-03T04:45:56.452Z,29.70
2022-08-03T04:48:23.043Z,29.87
2022-08-03T04:50:49.811Z,29.57
2022-08-03T04:53:17.834Z,29.63
2022-08-03T04:55:44.749Z,29.79
2022-08-03T04:58:12.704Z,30.01
2022-08-03T05:00:39.685Z,29.96
2022-08-03T05:03:23.898Z,30.17
2022-08-03T05:05:52.969Z,30.25
2022-08-03T05:08:20.370Z,30.29
2022-08-03T05:10:54.748Z,30.11
2022-08-03T05:13:21.447Z,30.31
2022-08-03T05:15:49.200Z,30.85
2022-08-03T05:18:15.736Z,31.06
2022-08-03T05:20:42.354Z,31.29
2022-08-03T05:23:08.896Z,31.33
2022-08-03T05:25:35.485Z,32.17
2022-08-03T05:28:02.071Z,33.66
2022-08-03T05:30:33.873Z,35.71
2022-08-03T05:33:02.947Z,37.27
2022-08-03T05:36:00.608Z,39.28
2022-08-03T05:38:23.693Z,41.05
2022-08-03T05:40:57.536Z,42.26
2022-08-03T05:43:41.875Z,42.63
2022-08-03T05:46:12.157Z,43.48
2022-08-03T05:48:39.926Z,43.71
2022-08-03T05:51:07.750Z,44.62
2022-08-03T05:53:34.550Z,45.56
2022-08-03T05:56:13.283Z,46.65
2022-08-03T05:58:52.376Z,47.66
2022-08-03T06:01:21.701Z,48.11
2022-08-03T06:03:49.666Z,48.68
2022-08-03T06:06:16.874Z,49.29
2022-08-03T06:08:44.698Z,49.39
2022-08-03T06:11:12.369Z,49.60
2022-08-03T06:13:38.955Z,50.30
2022-08-03T06:16:05.916Z,50.42
2022-08-03T06:18:32.452Z,51.08
2022-08-03T06:21:00.238Z,51.30
2022-08-03T06:23:55.102Z,50.80
2022-08-03T06:26:24.016Z,51.70
2022-08-03T06:28:52.997Z,51.94
2022-08-03T06:31:23.740Z,51.35
2022-08-03T06:34:33.595Z,51.40
2022-08-03T06:36:37.798Z,51.09
2022-08-03T06:39:06.257Z,51.15
2022-08-03T06:41:38.108Z,51.54
2022-08-03T06:44:11.871Z,52.47
2022-08-03T06:46:38.408Z,52.44
2022-08-03T06:49:05.513Z,52.65
2022-08-03T06:52:04.086Z,52.23
2022-08-03T06:54:19.046Z,52.04
2022-08-03T06:56:45.569Z,52.09
2022-08-03T07:00:10.769Z,52.79
2022-08-03T07:01:58.777Z,53.15
2022-08-03T07:04:25.379Z,53.05
2022-08-03T07:06:52.354Z,52.48
2022-08-03T07:09:18.949Z,51.81
2022-08-03T07:11:45.458Z,51.63
2022-08-03T07:14:11.997Z,50.73
2022-08-03T07:16:38.528Z,50.13
2022-08-03T07:19:05.408Z,50.78
2022-08-03T07:21:31.939Z,51.42
2022-08-03T07:23:58.461Z,51.42
2022-08-03T07:26:25.006Z,51.18
2022-08-03T07:28:51.533Z,51.25
2022-08-03T07:31:18.075Z,51.58
2022-08-03T07:33:44.611Z,52.03
2022-08-03T07:36:11.165Z,51.68
2022-08-03T07:38:37.742Z,52.02
2022-08-03T07:41:04.362Z,52.14
2022-08-03T07:43:30.915Z,51.99
2022-08-03T07:45:57.494Z,52.06
2022-08-03T07:48:24.021Z,51.33
2022-08-03T07:50:50.742Z,50.74
2022-08-03T07:53:17.314Z,51.04
2022-08-03T07:55:43.846Z,50.72
2022-08-03T07:58:12.460Z,50.45
2022-08-03T08:00:39.418Z,49.56
2022-08-03T08:03:06.119Z,49.51
2022-08-03T08:05:32.988Z,49.12
2022-08-03T08:08:00.656Z,49.78
2022-08-03T08:10:27.886Z,49.05
2022-08-03T08:12:55.108Z,48.95
2022-08-03T08:15:21.866Z,48.30
2022-08-03T08:17:51.942Z,48.71
2022-08-03T08:20:27.794Z,48.80
2022-08-03T08:23:02.717Z,48.54
2022-08-03T08:25:31.315Z,48.59
2022-08-03T08:28:29.546Z,47.85
2022-08-03T08:30:48.767Z,48.40
2022-08-03T08:33:22.536Z,48.27
2022-08-03T08:35:51.197Z,48.82
2022-08-03T08:38:17.762Z,48.99
2022-08-03T08:40:44.287Z,48.15
2022-08-03T08:43:10.796Z,48.45
2022-08-03T08:45:37.609Z,48.16
2022-08-03T08:48:08.334Z,47.31
2022-08-03T08:50:37.457Z,46.22
2022-08-03T08:53:09.833Z,45.48
2022-08-03T08:55:58.545Z,45.01
2022-08-03T08:58:31.203Z,45.14
2022-08-03T09:00:57.821Z,45.05
2022-08-03T09:03:30.262Z,44.72
2022-08-03T09:05:59.630Z,44.86
2022-08-03T09:08:26.465Z,45.18
2022-08-03T09:10:53.003Z,45.40
2022-08-03T09:13:19.676Z,44.37
2022-08-03T09:16:00.878Z,44.51
2022-08-03T09:18:32.851Z,44.65
2022-08-03T09:21:34.501Z,44.72
2022-08-03T09:24:05.392Z,44.71
2022-08-03T09:26:35.393Z,44.94
2022-08-03T09:29:11.168Z,44.30
2022-08-03T09:31:44.414Z,44.96
2022-08-03T09:34:14.525Z,44.97
2022-08-03T09:36:46.509Z,45.13
2022-08-03T09:39:16.913Z,45.52
2022-08-03T09:41:47.199Z,45.58
2022-08-03T09:44:24.143Z,45.45
2022-08-03T09:46:56.198Z,44.91
2022-08-03T09:49:23.296Z,44.29
2022-08-03T09:52:32.116Z,44.25
2022-08-03T09:54:37.007Z,44.18
2022-08-03T09:57:03.705Z,44.37
2022-08-03T09:59:32.205Z,44.58
2022-08-03T10:02:00.583Z,44.52
2022-08-03T10:04:28.318Z,45.05
2022-08-03T10:07:04.269Z,45.43
2022-08-03T10:09:30.902Z,44.71
2022-08-03T10:11:57.786Z,45.01
2022-08-03T10:14:26.425Z,45.32
2022-08-03T10:16:52.963Z,45.19
2022-08-03T10:19:19.608Z,45.33
2022-08-03T10:21:56.163Z,45.09
2022-08-03T10:24:28.542Z,45.41
2022-08-03T10:27:07.231Z,44.88
2022-08-03T10:29:38.826Z,44.49
2022-08-03T10:32:25.918Z,44.46
2022-08-03T10:35:00.211Z,44.29
2022-08-03T10:37:32.101Z,44.46
2022-08-03T10:40:00.653Z,44.80
2022-08-03T10:42:31.235Z,43.99
2022-08-03T10:45:04.980Z,44.83
2022-08-03T10:47:32.986Z,44.87
2022-08-03T10:50:00.465Z,45.29
2022-08-03T10:52:32.927Z,45.40
2022-08-03T10:55:20.665Z,44.84
2022-08-03T10:57:49.718Z,44.45
2022-08-03T11:00:21.494Z,44.95
2022-08-03T11:03:10.909Z,44.85
2022-08-03T11:05:40.581Z,43.64
2022-08-03T11:08:25.319Z,43.99
2022-08-03T11:10:54.793Z,44.61
2022-08-03T11:13:24.903Z,44.28
2022-08-03T11:15:54.085Z,44.46
2022-08-03T11:18:29.676Z,44.72
2022-08-03T11:20:58.662Z,44.09
2022-08-03T11:24:05.253Z,43.56
2022-08-03T11:26:29.440Z,43.97
2022-08-03T11:29:29.018Z,44.15
2022-08-03T11:31:55.606Z,44.48
2022-08-03T11:34:24.327Z,44.90
2022-08-03T11:37:24.501Z,44.64
2022-08-03T11:39:54.618Z,45.54
2022-08-03T11:42:25.081Z,44.53
2022-08-03T11:44:56.666Z,44.16
2022-08-03T11:47:26.800Z,44.95
2022-08-03T11:49:59.136Z,45.19
2022-08-03T11:52:28.767Z,44.93
2022-08-03T11:54:57.018Z,45.16
2022-08-03T11:59:16.665Z,45.52
2022-08-03T12:00:26.048Z,45.42
2022-08-03T12:02:56.687Z,45.76
2022-08-03T12:05:52.309Z,45.79
2022-08-03T12:08:33.508Z,45.31
2022-08-03T12:11:05.718Z,45.01
2022-08-03T12:14:45.748Z,44.58
2022-08-03T12:16:31.804Z,45.25
2022-08-03T12:19:06.568Z,44.67
2022-08-03T12:21:34.181Z,44.40
2022-08-03T12:24:04.833Z,44.47
2022-08-03T12:26:44.247Z,44.26
2022-08-03T12:29:22.970Z,44.03
2022-08-03T12:31:49.593Z,44.17
2022-08-03T12:34:16.413Z,44.13
2022-08-03T12:36:53.746Z,43.51
2022-08-03T12:39:25.133Z,43.75
2022-08-03T12:41:55.477Z,44.13
2022-08-03T12:44:36.142Z,44.23
2022-08-03T12:47:04.447Z,44.50
2022-08-03T12:49:52.045Z,44.40
2022-08-03T12:52:20.353Z,44.70
2022-08-03T12:54:57.979Z,44.06
2022-08-03T12:57:25.079Z,43.51
2022-08-03T12:59:55.770Z,44.47
2022-08-03T13:02:24.589Z,44.17
2022-08-03T13:04:53.399Z,44.77
2022-08-03T13:07:20.593Z,44.95
2022-08-03T13:09:55.125Z,45.22
2022-08-03T13:12:25.036Z,44.77
2022-08-03T13:14:55.545Z,44.52
2022-08-03T13:17:22.899Z,44.78
2022-08-03T13:19:50.246Z,44.39
2022-08-03T13:22:18.392Z,44.40
2022-08-03T13:24:47.389Z,44.60
2022-08-03T13:28:11.075Z,45.06
2022-08-03T13:30:01.146Z,45.33
2022-08-03T13:32:27.870Z,45.70
2022-08-03T13:34:54.452Z,45.12
2022-08-03T13:37:21.698Z,45.32
2022-08-03T13:39:59.246Z,45.38
2022-08-03T13:42:32.219Z,45.64
2022-08-03T13:44:59.493Z,46.11
2022-08-03T13:47:26.550Z,46.61
2022-08-03T13:49:59.373Z,46.23
2022-08-03T13:52:34.164Z,46.27
2022-08-03T13:55:03.588Z,46.40
2022-08-03T13:58:02.211Z,45.55
2022-08-03T14:00:27.680Z,45.75
2022-08-03T14:03:02.940Z,45.43
2022-08-03T14:05:31.982Z,44.78
2022-08-03T14:08:04.594Z,44.90
2022-08-03T14:10:33.362Z,44.87
2022-08-03T14:13:00.405Z,45.00
2022-08-03T14:15:28.472Z,44.35
2022-08-03T14:17:59.067Z,43.90
2022-08-03T14:20:36.775Z,44.34
2022-08-03T14:23:06.709Z,44.34
2022-08-03T14:25:44.464Z,44.45
2022-08-03T14:28:18.843Z,44.64
2022-08-03T14:30:45.650Z,44.59
2022-08-03T14:33:12.179Z,44.99
2022-08-03T14:35:39.159Z,44.97
2022-08-03T14:38:06.372Z,44.23
2022-08-03T14:40:32.954Z,44.22
2022-08-03T14:42:59.488Z,44.44
2022-08-03T14:45:26.071Z,44.13
2022-08-03T14:50:33.158Z,44.69
2022-08-03T14:50:45.488Z,45.18
2022-08-03T14:53:17.463Z,44.71
2022-08-03T14:55:49.666Z,45.11
2022-08-03T14:58:21.975Z,45.39
2022-08-03T15:00:50.422Z,44.62
2022-08-03T15:03:21.379Z,44.78
2022-08-03T15:05:47.969Z,44.80
2022-08-03T15:08:14.575Z,45.18
2022-08-03T15:10:44.849Z,44.94
2022-08-03T15:13:13.392Z,44.16
2022-08-03T15:15:40.344Z,43.70
2022-08-03T15:18:07.014Z,43.30
2022-08-03T15:20:43.872Z,43.85
2022-08-03T15:23:10.867Z,43.74
2022-08-03T15:26:28.551Z,43.23
2022-08-03T15:28:24.116Z,43.37
2022-08-03T15:30:53.657Z,43.86
2022-08-03T15:33:20.377Z,44.06
2022-08-03T15:35:47.969Z,44.27
2022-08-03T15:38:15.202Z,44.47
2022-08-03T15:40:42.384Z,44.32
2022-08-03T15:43:08.993Z,44.33
2022-08-03T15:45:36.879Z,44.31
2022-08-03T15:48:06.549Z,44.45
2022-08-03T15:50:33.101Z,44.32
2022-08-03T15:52:59.615Z,44.62
2022-08-03T15:55:26.249Z,44.94
2022-08-03T15:59:03.876Z,44.56
2022-08-03T16:00:40.518Z,44.10
2022-08-03T16:03:07.156Z,43.99
2022-08-03T16:05:33.882Z,43.75
2022-08-03T16:08:03.635Z,44.07
2022-08-03T16:10:31.886Z,43.83
2022-08-03T16:12:59.780Z,43.95
2022-08-03T16:15:26.327Z,44.49
2022-08-03T16:17:53.299Z,44.09
2022-08-03T16:20:29.710Z,43.80
2022-08-03T16:23:10.346Z,43.48
2022-08-03T16:25:41.803Z,43.86
2022-08-03T16:28:13.950Z,43.95
2022-08-03T16:30:43.561Z,43.85
2022-08-03T16:33:11.453Z,43.24
2022-08-03T16:35:43.697Z,43.42
2022-08-03T16:38:13.080Z,43.01
2022-08-03T16:40:42.101Z,43.46
2022-08-03T16:43:17.913Z,43.44
2022-08-03T16:45:48.990Z,43.50
2022-08-03T16:48:16.425Z,43.42
2022-08-03T16:50:44.102Z,43.21
2022-08-03T16:53:16.693Z,43.42
2022-08-03T16:55:53.960Z,43.58
2022-08-03T16:58:41.725Z,43.73
2022-08-03T17:01:21.913Z,43.71
2022-08-03T17:04:02.070Z,43.58
2022-08-03T17:06:35.865Z,43.47
2022-08-03T17:09:10.476Z,43.64
2022-08-03T17:11:43.973Z,43.24
2022-08-03T17:14:15.002Z,43.29
2022-08-03T17:16:52.414Z,43.32
2022-08-03T17:19:23.303Z,43.13
2022-08-03T17:21:56.944Z,43.29
2022-08-03T17:24:32.618Z,42.97
2022-08-03T17:27:08.913Z,43.18
2022-08-03T17:29:39.217Z,43.48
2022-08-03T17:32:18.128Z,43.48
2022-08-03T17:34:49.803Z,43.51
2022-08-03T17:37:27.147Z,43.30
2022-08-03T17:40:04.279Z,43.30
2022-08-03T17:42:33.243Z,43.29
2022-08-03T17:45:03.753Z,43.25
2022-08-03T17:47:42.880Z,43.22
2022-08-03T17:50:24.755Z,43.37
2022-08-03T17:53:07.496Z,43.55
2022-08-03T17:55:57.325Z,43.44
2022-08-03T17:58:42.059Z,43.19
2022-08-03T18:02:05.699Z,43.15
2022-08-03T18:04:30.019Z,43.15
2022-08-03T18:06:59.106Z,43.07
2022-08-03T18:10:06.067Z,43.01
2022-08-03T18:12:27.169Z,42.99
2022-08-03T18:15:01.302Z,42.88
2022-08-03T18:17:55.655Z,42.84
2022-08-03T18:20:34.437Z,42.75
2022-08-03T18:23:07.600Z,42.65
2022-08-03T18:25:45.632Z,42.57
2022-08-03T18:28:18.774Z,42.37
2022-08-03T18:30:53.716Z,42.34
2022-08-03T18:34:16.177Z,42.32
2022-08-03T18:36:21.711Z,42.25
2022-08-03T18:38:58.535Z,42.18
2022-08-03T18:41:33.714Z,42.10
2022-08-03T18:44:07.811Z,41.97
2022-08-03T18:47:15.958Z,41.84
2022-08-03T18:50:02.527Z,42.01
2022-08-03T18:52:52.735Z,41.75
2022-08-03T18:55:35.419Z,41.51
2022-08-03T18:58:17.795Z,41.33
2022-08-03T19:01:15.233Z,41.17
2022-08-03T19:04:03.905Z,40.95
2022-08-03T19:06:31.628Z,40.75
2022-08-03T19:09:09.538Z,40.64
2022-08-03T19:12:14.559Z,40.49
2022-08-03T19:14:42.463Z,40.30
2022-08-03T19:17:11.230Z,40.04
2022-08-03T19:19:44.569Z,39.89
2022-08-03T19:22:15.965Z,39.73
2022-08-03T19:24:45.872Z,39.62
2022-08-03T19:27:13.540Z,39.49
2022-08-03T19:29:58.797Z,39.30
2022-08-03T19:32:31.723Z,39.18
2022-08-03T19:35:00.131Z,38.98
2022-08-03T19:37:38.399Z,38.86
2022-08-03T19:40:10.776Z,38.62
2022-08-03T19:43:03.404Z,38.53
2022-08-03T19:45:52.664Z,38.37
2022-08-03T19:48:28.610Z,38.21
2022-08-03T19:51:02.335Z,38.05
2022-08-03T19:53:45.041Z,37.89
2022-08-03T19:56:14.213Z,37.76
2022-08-03T19:58:43.213Z,37.61
2022-08-03T20:01:21.588Z,37.45
2022-08-03T20:03:49.930Z,37.42
2022-08-03T20:06:21.492Z,37.30
2022-08-03T20:08:51.554Z,37.22
2022-08-03T20:11:19.903Z,37.05
2022-08-03T20:13:49.031Z,36.93
2022-08-03T20:16:15.923Z,36.86
2022-08-03T20:18:42.686Z,36.79
2022-08-03T20:21:15.350Z,36.75
2022-08-03T20:24:23.438Z,36.61
2022-08-03T20:26:53.527Z,36.57
2022-08-03T20:30:05.273Z,36.37
2022-08-03T20:32:15.316Z,36.18
2022-08-03T20:34:42.475Z,36.10
2022-08-03T20:37:12.057Z,36.09
2022-08-03T20:39:38.717Z,36.01
2022-08-03T20:42:07.256Z,35.97
2022-08-03T20:44:36.613Z,35.91
2022-08-03T20:47:10.191Z,35.85
2022-08-03T20:49:45.943Z,35.76
2022-08-03T20:52:18.386Z,35.70
2022-08-03T20:54:47.790Z,35.64
2022-08-03T20:57:16.366Z,35.57
2022-08-03T20:59:50.839Z,35.57
2022-08-03T21:02:30.038Z,35.43
2022-08-03T21:05:02.890Z,35.29
2022-08-03T21:08:05.813Z,35.27
2022-08-03T21:10:29.902Z,35.21
2022-08-03T21:13:15.480Z,35.14
2022-08-03T21:16:12.646Z,34.99
2022-08-03T21:18:38.005Z,34.92
2022-08-03T21:21:06.215Z,34.81
2022-08-03T21:23:48.874Z,34.79
2022-08-03T21:26:18.413Z,34.76
2022-08-03T21:28:47.317Z,34.68
2022-08-03T21:31:19.830Z,33.69
2022-08-03T21:34:05.188Z,33.97
2022-08-03T21:36:34.152Z,33.90
2022-08-03T21:39:02.389Z,33.93
2022-08-03T21:41:31.884Z,33.91
2022-08-03T21:43:59.498Z,33.77
2022-08-03T21:46:29.532Z,33.33
2022-08-03T21:50:07.502Z,33.35
2022-08-03T21:51:52.385Z,33.38
2022-08-03T21:54:22.456Z,33.46
2022-08-03T21:56:51.013Z,33.41
2022-08-03T21:59:19.714Z,32.82
2022-08-03T22:01:48.955Z,32.79
2022-08-03T22:04:50.315Z,32.96
2022-08-03T22:07:07.869Z,32.69
2022-08-03T22:09:36.013Z,32.70
2022-08-03T22:12:03.046Z,34.47
2022-08-03T22:14:32.388Z,32.59
2022-08-03T22:16:59.999Z,31.80
2022-08-03T22:19:26.563Z,31.38
2022-08-03T22:21:54.319Z,31.17
2022-08-03T22:24:23.902Z,31.33
2022-08-03T22:27:09.900Z,31.22
2022-08-03T22:29:39.636Z,30.90
2022-08-03T22:32:06.782Z,31.19
2022-08-03T22:34:33.534Z,31.04
2022-08-03T22:37:02.885Z,30.99
2022-08-03T22:39:30.093Z,31.14
2022-08-03T22:41:57.943Z,31.03
2022-08-03T22:44:25.470Z,31.10
2022-08-03T22:46:52.128Z,31.04
2022-08-03T22:49:19.471Z,31.02
2022-08-03T22:51:47.094Z,31.16
2022-08-03T22:54:14.353Z,31.24
2022-08-03T22:56:41.836Z,31.14
2022-08-03T22:59:40.390Z,31.20
2022-08-03T23:02:20.021Z,30.64
2022-08-03T23:04:51.572Z,30.67
2022-08-03T23:07:39.408Z,30.67
2022-08-03T23:10:12.050Z,30.62
2022-08-03T23:12:40.778Z,30.43
2022-08-03T23:15:10.401Z,30.27
2022-08-03T23:17:58.556Z,30.37
2022-08-03T23:20:26.852Z,30.38
2022-08-03T23:22:57.742Z,30.63
2022-08-03T23:25:25.285Z,30.52
2022-08-03T23:28:05.376Z,30.57
2022-08-03T23:30:34.696Z,30.82
2022-08-03T23:33:02.861Z,30.72
2022-08-03T23:36:29.668Z,30.26
2022-08-03T23:38:36.751Z,29.85
2022-08-03T23:41:04.775Z,29.93
2022-08-03T23:43:45.135Z,29.83
2022-08-03T23:46:21.756Z,29.63
2022-08-03T23:48:48.341Z,29.54
2022-08-03T23:51:50.894Z,29.24
2022-08-03T23:54:32.051Z,29.22
2022-08-03T23:57:09.216Z,29.03
2022-08-03T23:59:46.761Z,29.39
